Time;durP1;ratioP1;P1;durP2;ratioP2;P2;SDS_P1;SDS_P2;PMS_P1;PMS_P2;Temp;Humidity;BMP_temperature;BMP_pressure;BME280_temperature;BME280_humidity;BME280_pressure;Samples;Min_cycle;Max_cycle;Signal;HPM_P1;HPM_P2
2024/01/12 00:01:47;;;;;;;39.20;22.67;;;1.70;99.90;;;;;;5035852;28;20634;-75
2024/01/12 00:04:15;;;;;;;39.67;23.10;;;1.70;99.90;;;;;;5035011;28;20196;-75
2024/01/12 00:06:40;;;;;;;40.87;22.90;;;1.70;99.90;;;;;;5033643;28;20186;-74
2024/01/12 00:09:06;;;;;;;43.00;23.83;;;1.70;99.90;;;;;;5034575;28;20427;-76
2024/01/12 00:11:32;;;;;;;38.33;22.30;;;1.70;99.90;;;;;;5035919;28;20185;-76
2024/01/12 00:13:58;;;;;;;43.40;22.83;;;1.70;99.90;;;;;;5016892;28;20200;-73
2024/01/12 00:16:23;;;;;;;41.70;22.77;;;1.70;99.90;;;;;;5034574;28;20214;-75
2024/01/12 00:18:49;;;;;;;40.20;23.77;;;1.70;99.90;;;;;;5018025;28;20208;-75
2024/01/12 00:21:15;;;;;;;38.10;21.63;;;1.70;99.90;;;;;;5034578;28;20719;-74
2024/01/12 00:23:40;;;;;;;38.67;22.60;;;1.70;99.90;;;;;;5035549;28;20248;-75
2024/01/12 00:26:06;;;;;;;44.40;23.93;;;1.70;99.90;;;;;;5034116;28;20183;-73
2024/01/12 00:28:32;;;;;;;42.27;22.30;;;1.70;99.90;;;;;;5035443;28;20185;-74
2024/01/12 00:30:58;;;;;;;36.63;21.20;;;1.70;99.90;;;;;;5034434;28;20186;-76
2024/01/12 00:33:23;;;;;;;45.20;24.77;;;1.70;99.90;;;;;;5035767;28;20496;-73
2024/01/12 00:35:49;;;;;;;43.13;23.63;;;1.70;99.90;;;;;;5034421;28;20205;-75
2024/01/12 00:38:15;;;;;;;43.33;23.47;;;1.70;99.90;;;;;;5035127;28;20213;-73
2024/01/12 00:40:41;;;;;;;42.30;23.80;;;1.60;99.90;;;;;;5034243;28;21133;-73
2024/01/12 00:43:07;;;;;;;42.07;23.77;;;1.70;99.90;;;;;;5016591;28;20424;-73
2024/01/12 00:45:33;;;;;;;45.37;24.43;;;1.70;99.90;;;;;;5016596;28;20527;-75
2024/01/12 00:47:59;;;;;;;39.90;23.17;;;1.70;99.90;;;;;;5016329;28;21074;-74
2024/01/12 00:50:25;;;;;;;41.93;22.90;;;1.70;99.90;;;;;;5034811;28;20483;-76
2024/01/12 00:52:51;;;;;;;48.70;24.53;;;1.70;99.90;;;;;;5034696;28;20483;-76
2024/01/12 00:55:17;;;;;;;51.80;24.77;;;1.70;99.90;;;;;;5034830;28;20269;-74
2024/01/12 00:57:43;;;;;;;50.27;26.00;;;1.60;99.90;;;;;;5034594;28;20264;-76
2024/01/12 01:00:09;;;;;;;45.57;25.27;;;1.70;99.90;;;;;;5033306;28;21209;-74
2024/01/12 01:02:35;;;;;;;46.30;25.07;;;1.70;99.90;;;;;;5034902;28;20819;-74
2024/01/12 01:05:01;;;;;;;44.70;24.20;;;1.70;99.90;;;;;;5033602;28;20485;-74
2024/01/12 01:07:28;;;;;;;44.63;23.80;;;1.70;99.90;;;;;;5033214;28;20509;-74
2024/01/12 01:09:54;;;;;;;45.40;25.70;;;1.70;99.90;;;;;;5033866;28;20919;-74
2024/01/12 01:12:20;;;;;;;50.90;27.47;;;1.70;99.90;;;;;;5033747;28;20802;-76
2024/01/12 01:14:46;;;;;;;39.47;24.33;;;1.70;99.90;;;;;;5001082;28;20499;-73
2024/01/12 01:17:12;;;;;;;51.73;25.77;;;1.70;99.90;;;;;;5033262;28;20233;-75
2024/01/12 01:19:38;;;;;;;48.33;26.57;;;1.70;99.90;;;;;;5034119;28;20473;-74
2024/01/12 01:22:04;;;;;;;53.77;26.73;;;1.70;99.90;;;;;;5015625;28;20436;-75
2024/01/12 01:24:30;;;;;;;51.80;26.70;;;1.70;99.90;;;;;;5033528;28;20436;-75
2024/01/12 01:26:57;;;;;;;46.37;26.83;;;1.60;99.90;;;;;;5032869;28;20432;-75
2024/01/12 01:29:22;;;;;;;59.10;29.20;;;1.60;99.90;;;;;;5033428;28;20656;-75
2024/01/12 01:31:48;;;;;;;54.53;27.77;;;1.70;99.90;;;;;;5034067;28;20464;-73
2024/01/12 01:34:15;;;;;;;53.47;29.03;;;1.70;99.90;;;;;;5033598;28;20186;-73
2024/01/12 01:36:40;;;;;;;55.80;30.53;;;1.70;99.90;;;;;;5033604;28;20935;-73
2024/01/12 01:39:06;;;;;;;47.17;27.50;;;1.70;99.90;;;;;;5033079;28;20463;-73
2024/01/12 01:41:32;;;;;;;55.20;28.37;;;1.70;99.90;;;;;;5034139;28;20192;-75
2024/01/12 01:43:57;;;;;;;57.20;29.97;;;1.70;99.90;;;;;;5000805;28;20178;-75
2024/01/12 01:46:23;;;;;;;55.20;30.37;;;1.70;99.90;;;;;;5034472;28;20193;-75
2024/01/12 01:48:49;;;;;;;59.10;31.60;;;1.70;99.90;;;;;;5034635;28;20186;-75
2024/01/12 01:51:15;;;;;;;59.17;29.67;;;1.80;99.90;;;;;;5033488;28;20434;-76
2024/01/12 01:53:41;;;;;;;68.10;30.93;;;1.70;99.90;;;;;;5016653;28;20436;-73
2024/01/12 01:56:09;;;;;;;56.13;29.40;;;1.70;99.90;;;;;;5014723;28;20512;-76
2024/01/12 01:58:35;;;;;;;52.23;28.70;;;1.70;99.90;;;;;;5033006;28;20511;-73
2024/01/12 02:01:02;;;;;;;59.83;30.50;;;1.70;99.90;;;;;;5032646;28;20553;-75
2024/01/12 02:03:28;;;;;;;57.07;29.50;;;1.70;99.90;;;;;;5032871;28;20440;-74
2024/01/12 02:05:56;;;;;;;60.57;30.40;;;1.70;99.90;;;;;;5032111;28;20464;-74
2024/01/12 02:08:23;;;;;;;55.10;30.63;;;1.70;99.90;;;;;;5032938;28;20432;-75
2024/01/12 02:10:52;;;;;;;52.67;29.60;;;1.70;99.90;;;;;;5014901;28;20773;-75
2024/01/12 02:13:20;;;;;;;58.90;29.40;;;1.70;99.90;;;;;;5032454;28;20923;-76
2024/01/12 02:15:46;;;;;;;59.37;30.90;;;1.70;99.90;;;;;;5031953;28;20489;-76
2024/01/12 02:18:12;;;;;;;55.87;30.30;;;1.80;99.90;;;;;;5032958;28;20433;-73
2024/01/12 02:20:38;;;;;;;59.93;29.20;;;1.80;99.90;;;;;;5037253;28;20639;-76
2024/01/12 02:23:04;;;;;;;58.90;29.80;;;1.80;99.90;;;;;;5036615;28;20189;-74
2024/01/12 02:25:29;;;;;;;63.37;31.97;;;1.70;99.90;;;;;;5037305;28;20508;-73
2024/01/12 02:27:55;;;;;;;53.70;29.67;;;1.70;99.90;;;;;;5018055;28;20953;-73
2024/01/12 02:30:21;;;;;;;54.50;29.43;;;1.70;99.90;;;;;;5037262;28;20182;-73
2024/01/12 02:32:47;;;;;;;62.50;29.60;;;1.70;99.90;;;;;;5018541;28;20463;-73
2024/01/12 02:35:13;;;;;;;59.67;30.93;;;1.70;99.90;;;;;;5018359;28;20183;-75
2024/01/12 02:37:38;;;;;;;60.90;31.30;;;1.80;99.90;;;;;;5037035;28;20188;-76
2024/01/12 02:40:05;;;;;;;57.40;28.60;;;1.80;99.90;;;;;;5035800;28;20270;-73
2024/01/12 02:42:30;;;;;;;57.63;28.30;;;1.70;99.90;;;;;;5036216;28;20545;-76
2024/01/12 02:44:56;;;;;;;60.97;30.03;;;1.70;99.90;;;;;;5017975;28;20427;-75
2024/01/12 02:47:22;;;;;;;64.07;30.17;;;1.80;99.90;;;;;;5036141;28;20199;-76
2024/01/12 02:49:47;;;;;;;62.80;28.30;;;1.70;99.90;;;;;;5018768;28;20186;-74
2024/01/12 02:52:13;;;;;;;61.50;29.60;;;1.80;99.90;;;;;;5035524;28;20244;-74
2024/01/12 02:54:39;;;;;;;64.20;28.43;;;1.80;99.90;;;;;;5036730;28;20681;-74
2024/01/12 02:57:04;;;;;;;56.40;28.10;;;1.80;99.90;;;;;;5035499;28;20182;-75
2024/01/12 02:59:30;;;;;;;57.00;28.13;;;1.70;99.90;;;;;;5035998;28;20345;-74
2024/01/12 03:01:56;;;;;;;53.03;27.53;;;1.70;99.90;;;;;;5035928;28;20421;-76
2024/01/12 03:04:21;;;;;;;54.63;26.67;;;1.70;99.90;;;;;;5035385;28;20243;-74
2024/01/12 03:06:47;;;;;;;53.80;25.97;;;1.80;99.90;;;;;;5000524;28;20273;-75
2024/01/12 03:09:13;;;;;;;58.20;29.13;;;1.70;99.90;;;;;;5035705;28;20210;-74
2024/01/12 03:11:38;;;;;;;60.37;28.20;;;1.80;99.90;;;;;;5035505;28;20193;-74
2024/01/12 03:14:04;;;;;;;59.23;28.50;;;1.80;99.90;;;;;;5035437;28;20193;-75
2024/01/12 03:16:30;;;;;;;58.37;28.33;;;1.70;99.90;;;;;;5035830;28;20202;-76
2024/01/12 03:18:56;;;;;;;56.80;27.73;;;1.80;99.90;;;;;;5034583;28;20197;-75
2024/01/12 03:21:22;;;;;;;59.73;26.87;;;1.80;99.90;;;;;;5035633;28;20207;-74
2024/01/12 03:23:47;;;;;;;59.37;29.50;;;1.70;99.90;;;;;;5035286;28;20846;-73
2024/01/12 03:26:13;;;;;;;54.60;28.10;;;1.80;99.90;;;;;;5035347;28;20425;-76
2024/01/12 03:28:39;;;;;;;59.47;26.67;;;1.80;99.90;;;;;;5036325;28;20429;-75
2024/01/12 03:31:06;;;;;;;56.90;28.00;;;1.70;99.90;;;;;;5016184;28;20624;-74
2024/01/12 03:33:32;;;;;;;59.23;25.60;;;1.70;99.90;;;;;;5035914;28;20181;-76
2024/01/12 03:35:57;;;;;;;61.60;28.30;;;1.70;99.90;;;;;;5001963;28;20418;-75
2024/01/12 03:38:23;;;;;;;58.77;27.90;;;1.70;99.90;;;;;;5035899;28;20182;-74
2024/01/12 03:40:49;;;;;;;63.13;28.07;;;1.70;99.90;;;;;;5035284;28;20474;-74
2024/01/12 03:43:15;;;;;;;55.77;27.80;;;1.70;99.90;;;;;;5017469;28;20984;-73
2024/01/12 03:45:40;;;;;;;50.57;25.10;;;1.70;99.90;;;;;;5035424;28;20186;-74
2024/01/12 03:48:07;;;;;;;52.63;24.60;;;1.70;99.90;;;;;;5034026;28;20181;-75
2024/01/12 03:50:32;;;;;;;66.73;29.13;;;1.60;99.90;;;;;;5035494;28;20742;-74
2024/01/12 03:52:58;;;;;;;64.23;27.20;;;1.70;99.90;;;;;;5016535;28;20463;-76
2024/01/12 03:55:23;;;;;;;58.83;26.37;;;1.70;99.90;;;;;;5035339;28;20178;-74
2024/01/12 03:57:49;;;;;;;62.77;28.87;;;1.70;99.90;;;;;;5034937;28;20185;-76
2024/01/12 04:00:15;;;;;;;59.23;26.90;;;1.70;99.90;;;;;;5034798;28;20217;-76
2024/01/12 04:02:41;;;;;;;63.07;26.97;;;1.70;99.90;;;;;;5034434;28;20267;-74
2024/01/12 04:05:07;;;;;;;65.13;27.30;;;1.60;99.90;;;;;;5034799;28;21205;-73
2024/01/12 04:07:33;;;;;;;54.87;26.67;;;1.70;99.90;;;;;;5034567;28;20251;-76
2024/01/12 04:09:58;;;;;;;61.77;28.47;;;1.70;99.90;;;;;;5016271;28;20436;-76
2024/01/12 04:12:24;;;;;;;56.77;28.80;;;1.70;99.90;;;;;;5034747;28;20189;-76
2024/01/12 04:14:50;;;;;;;64.80;28.20;;;1.70;99.90;;;;;;5018565;28;20174;-75
2024/01/12 04:17:16;;;;;;;58.07;25.73;;;1.70;99.90;;;;;;5016415;28;20233;-76
2024/01/12 04:19:41;;;;;;;57.93;27.03;;;1.70;99.90;;;;;;5034122;28;20234;-74
2024/01/12 04:22:07;;;;;;;66.40;26.87;;;1.70;99.90;;;;;;5034400;28;20439;-74
2024/01/12 04:24:33;;;;;;;61.53;27.87;;;1.70;99.90;;;;;;5016966;28;20194;-74
2024/01/12 04:26:59;;;;;;;64.67;29.70;;;1.70;99.90;;;;;;5033618;28;20281;-74
2024/01/12 04:29:24;;;;;;;61.27;28.97;;;1.70;99.90;;;;;;5016831;28;21043;-74
2024/01/12 04:31:50;;;;;;;57.07;24.60;;;1.70;99.90;;;;;;5034332;28;20189;-76
2024/01/12 04:34:16;;;;;;;60.77;26.83;;;1.70;99.90;;;;;;5034601;28;21061;-74
2024/01/12 04:36:42;;;;;;;59.30;27.60;;;1.70;99.90;;;;;;5033825;28;20697;-73
2024/01/12 04:39:08;;;;;;;52.53;25.03;;;1.70;99.90;;;;;;5034340;28;20494;-75
2024/01/12 04:41:34;;;;;;;63.33;27.90;;;1.80;99.90;;;;;;5034172;28;20489;-76
2024/01/12 04:44:00;;;;;;;48.53;24.70;;;1.80;99.90;;;;;;5034370;28;20185;-76
2024/01/12 04:46:26;;;;;;;56.57;25.13;;;1.80;99.90;;;;;;5034547;28;20213;-75
2024/01/12 04:48:51;;;;;;;60.33;26.20;;;1.70;99.90;;;;;;5033835;28;20494;-73
2024/01/12 04:51:18;;;;;;;68.97;29.40;;;1.80;99.90;;;;;;5033639;28;20513;-75
2024/01/12 04:53:44;;;;;;;58.00;25.33;;;1.70;99.90;;;;;;5034026;28;20179;-74
2024/01/12 04:56:09;;;;;;;67.63;28.70;;;1.70;99.90;;;;;;5034042;28;20443;-75
2024/01/12 04:58:35;;;;;;;54.47;25.23;;;1.70;99.90;;;;;;5016184;28;20280;-74
2024/01/12 05:01:00;;;;;;;55.87;25.23;;;1.80;99.90;;;;;;5034145;28;20726;-74
2024/01/12 05:03:26;;;;;;;60.27;25.50;;;1.70;99.90;;;;;;5034141;28;20250;-73
2024/01/12 05:05:52;;;;;;;61.40;27.67;;;1.70;99.90;;;;;;5031926;28;20833;-75
2024/01/12 05:08:18;;;;;;;54.17;25.47;;;1.70;99.90;;;;;;5033850;28;20669;-74
2024/01/12 05:10:43;;;;;;;55.83;25.70;;;1.70;99.90;;;;;;5033803;28;20194;-74
2024/01/12 05:13:09;;;;;;;55.77;25.50;;;1.70;99.90;;;;;;5034070;28;20682;-76
2024/01/12 05:15:34;;;;;;;52.17;25.90;;;1.80;99.90;;;;;;5033269;28;20251;-74
2024/01/12 05:18:00;;;;;;;52.03;24.83;;;1.80;99.90;;;;;;5033793;28;20186;-76
2024/01/12 05:20:27;;;;;;;50.93;23.30;;;1.80;99.90;;;;;;5033582;28;20792;-73
2024/01/12 05:22:52;;;;;;;57.50;24.93;;;1.80;99.90;;;;;;5033205;28;20241;-74
2024/01/12 05:25:18;;;;;;;53.70;24.47;;;1.80;99.90;;;;;;5033480;28;20432;-74
2024/01/12 05:27:44;;;;;;;58.40;26.20;;;1.80;99.90;;;;;;5015928;28;20190;-74
2024/01/12 05:30:10;;;;;;;48.00;22.87;;;1.80;99.90;;;;;;5033854;28;20220;-74
2024/01/12 05:32:36;;;;;;;50.10;22.93;;;1.80;99.90;;;;;;5033070;28;20194;-76
2024/01/12 05:35:02;;;;;;;49.93;23.67;;;1.90;99.90;;;;;;5032999;28;20436;-75
2024/01/12 05:37:28;;;;;;;44.13;22.30;;;1.80;99.90;;;;;;5033500;28;20436;-75
2024/01/12 05:39:53;;;;;;;45.73;21.40;;;1.80;99.90;;;;;;5033464;28;20248;-75
2024/01/12 05:42:19;;;;;;;46.70;21.23;;;1.90;99.90;;;;;;5033311;28;20919;-76
2024/01/12 05:44:45;;;;;;;50.13;23.77;;;1.90;99.90;;;;;;5032673;28;20194;-76
2024/01/12 05:47:11;;;;;;;48.27;22.40;;;1.90;99.90;;;;;;5033645;28;20213;-75
2024/01/12 05:49:37;;;;;;;39.90;19.10;;;1.90;99.90;;;;;;5032654;28;20177;-75
2024/01/12 05:52:03;;;;;;;46.33;18.67;;;1.90;99.90;;;;;;5032759;28;20520;-76
2024/01/12 05:54:29;;;;;;;21.27;11.87;;;1.90;99.90;;;;;;5028257;28;20475;-74
2024/01/12 05:56:55;;;;;;;20.20;10.27;;;1.90;99.90;;;;;;5028202;28;21191;-75
2024/01/12 05:59:20;;;;;;;16.40;8.50;;;1.90;99.90;;;;;;5032348;28;20312;-74
2024/01/12 06:01:46;;;;;;;13.70;8.60;;;1.90;99.90;;;;;;5032454;28;20417;-74
2024/01/12 06:04:12;;;;;;;15.20;8.00;;;1.90;99.90;;;;;;5033606;28;20787;-74
2024/01/12 06:06:40;;;;;;;19.30;8.63;;;1.90;99.90;;;;;;5031777;28;20190;-76
2024/01/12 06:09:06;;;;;;;17.87;9.37;;;1.90;99.90;;;;;;5033547;28;20309;-74
2024/01/12 06:11:32;;;;;;;14.60;8.10;;;1.90;99.90;;;;;;5032932;28;21132;-76
2024/01/12 06:13:58;;;;;;;15.70;9.20;;;1.90;99.90;;;;;;5031572;28;20513;-77
2024/01/12 06:16:23;;;;;;;12.90;7.20;;;1.90;99.90;;;;;;5033272;28;20217;-74
2024/01/12 06:18:49;;;;;;;11.57;7.07;;;2.00;99.90;;;;;;5032225;28;20194;-77
2024/01/12 06:21:14;;;;;;;13.10;7.13;;;2.00;99.90;;;;;;5033001;28;20628;-73
2024/01/12 06:23:40;;;;;;;13.43;7.70;;;2.00;99.90;;;;;;5032803;28;20223;-77
2024/01/12 06:26:06;;;;;;;12.57;7.20;;;2.10;99.90;;;;;;5011183;28;20551;-76
2024/01/12 06:28:31;;;;;;;10.27;6.50;;;2.10;99.90;;;;;;5014498;28;20278;-74
2024/01/12 06:30:57;;;;;;;9.10;5.87;;;2.00;99.90;;;;;;5032454;28;20782;-74
2024/01/12 06:33:23;;;;;;;12.70;6.47;;;2.00;99.90;;;;;;5032720;28;20178;-73
2024/01/12 06:35:49;;;;;;;9.40;6.47;;;2.00;99.90;;;;;;5032136;28;20189;-73
2024/01/12 06:38:15;;;;;;;9.40;6.17;;;2.00;99.90;;;;;;5015530;28;20454;-74
2024/01/12 06:40:40;;;;;;;9.93;6.60;;;2.00;99.90;;;;;;5031140;28;20241;-76
2024/01/12 06:43:06;;;;;;;11.20;6.60;;;2.00;99.90;;;;;;5033117;28;20179;-76
2024/01/12 06:45:32;;;;;;;12.20;6.90;;;2.00;99.90;;;;;;5032383;28;20198;-74
2024/01/12 06:47:58;;;;;;;12.23;6.63;;;2.00;99.90;;;;;;5032669;28;20218;-72
2024/01/12 06:50:23;;;;;;;9.87;6.33;;;2.00;99.90;;;;;;5029333;28;20186;-73
2024/01/12 06:52:49;;;;;;;14.67;8.13;;;2.10;99.90;;;;;;5032255;28;20403;-74
2024/01/12 06:55:15;;;;;;;12.50;8.37;;;2.10;99.90;;;;;;5032645;28;20190;-72
2024/01/12 06:57:43;;;;;;;14.00;8.30;;;2.10;99.90;;;;;;5031843;28;20431;-73
2024/01/12 07:00:09;;;;;;;14.83;7.90;;;2.00;99.90;;;;;;5032061;28;20655;-73
2024/01/12 07:02:35;;;;;;;13.20;8.57;;;2.00;99.90;;;;;;5032114;28;20498;-74
2024/01/12 07:05:01;;;;;;;14.40;8.50;;;2.10;99.90;;;;;;5016132;28;20451;-75
2024/01/12 07:07:26;;;;;;;14.70;9.37;;;2.10;99.90;;;;;;5036482;28;20186;-72
2024/01/12 07:09:52;;;;;;;14.90;8.07;;;2.10;99.90;;;;;;5036459;28;20260;-72
2024/01/12 07:12:18;;;;;;;12.97;7.63;;;2.00;99.90;;;;;;5036027;28;20555;-72
2024/01/12 07:14:43;;;;;;;12.47;7.70;;;2.10;99.90;;;;;;5031406;28;20174;-73
2024/01/12 07:17:09;;;;;;;12.10;7.60;;;2.00;99.90;;;;;;5016485;28;20197;-73
2024/01/12 07:19:36;;;;;;;12.47;8.00;;;2.00;99.90;;;;;;5030201;28;20232;-73
2024/01/12 07:22:02;;;;;;;15.00;8.13;;;2.00;99.90;;;;;;5029752;28;20602;-73
2024/01/12 07:24:28;;;;;;;14.63;7.40;;;2.00;99.90;;;;;;5017167;28;20444;-71
2024/01/12 07:26:54;;;;;;;12.43;8.27;;;2.00;99.90;;;;;;5017238;28;20915;-72
2024/01/12 07:29:22;;;;;;;10.33;6.90;;;2.00;99.90;;;;;;5034597;28;20197;-70
2024/01/12 07:31:49;;;;;;;10.40;7.40;;;2.00;99.90;;;;;;5034120;28;20441;-71
2024/01/12 07:34:15;;;;;;;14.03;7.47;;;2.00;99.90;;;;;;5032837;28;20436;-70
2024/01/12 07:36:40;;;;;;;13.43;8.97;;;1.90;99.90;;;;;;5033100;28;20796;-72
2024/01/12 07:39:07;;;;;;;11.23;7.20;;;1.90;99.90;;;;;;5034615;28;20210;-72
2024/01/12 07:41:33;;;;;;;12.33;7.87;;;2.00;99.90;;;;;;5034254;28;20630;-70
2024/01/12 07:43:59;;;;;;;13.83;9.00;;;2.00;99.90;;;;;;5014540;28;20437;-74
2024/01/12 07:46:25;;;;;;;18.13;10.23;;;2.00;99.90;;;;;;5033640;28;20429;-71
2024/01/12 07:48:51;;;;;;;14.00;8.93;;;2.00;99.90;;;;;;5034824;28;20960;-74
2024/01/12 07:51:17;;;;;;;14.77;8.67;;;2.00;99.90;;;;;;5033257;28;20206;-72
2024/01/12 07:53:43;;;;;;;14.33;9.27;;;2.00;99.90;;;;;;5033239;28;20482;-72
2024/01/12 07:56:10;;;;;;;18.13;9.00;;;2.00;99.90;;;;;;5032021;28;20939;-70
2024/01/12 07:58:35;;;;;;;15.10;9.53;;;2.10;99.90;;;;;;5032448;28;20185;-71
2024/01/12 08:01:01;;;;;;;12.40;8.23;;;2.10;99.90;;;;;;5013639;28;20478;-71
2024/01/12 08:03:27;;;;;;;12.73;7.50;;;2.00;99.90;;;;;;5034383;28;20229;-70
2024/01/12 08:05:52;;;;;;;15.20;9.13;;;2.00;99.90;;;;;;5035001;28;20188;-74
2024/01/12 08:08:19;;;;;;;17.80;9.97;;;2.00;99.90;;;;;;5034864;28;20175;-71
2024/01/12 08:10:46;;;;;;;16.70;9.20;;;2.00;99.90;;;;;;5015489;28;20273;-71
2024/01/12 08:13:12;;;;;;;15.33;9.70;;;2.00;99.90;;;;;;5034829;28;20820;-72
2024/01/12 08:15:38;;;;;;;17.43;9.47;;;2.00;99.90;;;;;;5033628;28;20472;-73
2024/01/12 08:18:04;;;;;;;14.37;8.87;;;2.00;99.90;;;;;;5034624;28;20417;-73
2024/01/12 08:20:29;;;;;;;17.03;9.07;;;2.00;99.90;;;;;;5033199;28;20543;-72
2024/01/12 08:22:55;;;;;;;13.87;8.27;;;2.00;99.90;;;;;;5017346;28;20193;-73
2024/01/12 08:25:23;;;;;;;16.30;8.80;;;1.90;99.90;;;;;;5016540;28;20186;-70
2024/01/12 08:27:49;;;;;;;16.30;9.77;;;2.00;99.90;;;;;;5034069;28;20281;-72
2024/01/12 08:30:14;;;;;;;15.40;8.93;;;2.00;99.90;;;;;;5001451;28;20508;-74
2024/01/12 08:32:40;;;;;;;13.60;9.37;;;2.00;99.90;;;;;;5033272;28;20269;-72
2024/01/12 08:35:06;;;;;;;15.67;9.70;;;2.00;99.90;;;;;;5034541;28;20664;-72
2024/01/12 08:37:32;;;;;;;15.90;9.97;;;2.00;99.90;;;;;;5033735;28;20201;-74
2024/01/12 08:39:58;;;;;;;15.97;9.73;;;2.10;99.90;;;;;;5016438;28;20990;-72
2024/01/12 08:42:24;;;;;;;18.53;11.23;;;2.10;99.90;;;;;;5033592;28;21168;-71
2024/01/12 08:44:50;;;;;;;17.93;10.67;;;2.00;99.90;;;;;;5032980;28;20432;-72
2024/01/12 08:47:15;;;;;;;20.40;11.07;;;2.00;99.90;;;;;;5033587;28;20194;-72
2024/01/12 08:49:41;;;;;;;20.60;11.77;;;2.00;99.90;;;;;;5032715;28;20186;-74
2024/01/12 08:52:07;;;;;;;21.23;11.63;;;2.00;99.90;;;;;;5033515;28;20202;-74
2024/01/12 08:54:32;;;;;;;20.87;11.77;;;2.00;99.90;;;;;;5033631;28;20648;-73
2024/01/12 08:56:58;;;;;;;21.90;12.50;;;2.10;99.90;;;;;;5034180;28;20227;-72
2024/01/12 08:59:25;;;;;;;19.60;11.67;;;2.10;99.90;;;;;;5033716;28;20212;-74
2024/01/12 09:01:51;;;;;;;23.33;12.00;;;2.10;99.90;;;;;;5033711;28;20517;-74
2024/01/12 09:04:17;;;;;;;22.03;12.87;;;2.10;99.90;;;;;;5033954;28;20745;-72
2024/01/12 09:06:42;;;;;;;21.90;12.00;;;2.10;99.90;;;;;;5033640;28;20197;-74
2024/01/12 09:09:08;;;;;;;23.70;11.73;;;2.10;99.90;;;;;;5034188;28;20504;-74
2024/01/12 09:11:34;;;;;;;24.50;11.67;;;2.10;99.90;;;;;;5015397;28;20211;-70
2024/01/12 09:14:00;;;;;;;19.83;10.30;;;2.10;99.90;;;;;;5033217;28;20546;-73
2024/01/12 09:16:25;;;;;;;20.77;11.27;;;2.10;99.90;;;;;;5015077;28;20229;-73
2024/01/12 09:18:51;;;;;;;20.53;11.73;;;2.10;99.90;;;;;;5033966;28;20983;-72
2024/01/12 09:21:17;;;;;;;21.27;10.50;;;2.10;99.90;;;;;;5033265;28;20268;-73
2024/01/12 09:23:43;;;;;;;25.77;12.90;;;2.20;99.90;;;;;;5033507;28;20239;-71
2024/01/12 09:26:10;;;;;;;24.23;12.10;;;2.20;99.90;;;;;;5033126;28;20270;-71
2024/01/12 09:28:36;;;;;;;22.23;12.40;;;2.20;99.90;;;;;;5030270;28;21152;-72
2024/01/12 09:31:03;;;;;;;20.93;12.17;;;2.20;99.90;;;;;;5033337;28;20428;-71
2024/01/12 09:33:29;;;;;;;20.80;13.33;;;2.20;99.90;;;;;;5032585;28;20433;-72
2024/01/12 09:35:55;;;;;;;23.27;12.40;;;2.20;99.90;;;;;;5032898;28;20424;-73
2024/01/12 09:38:21;;;;;;;25.90;13.30;;;2.20;99.90;;;;;;5014525;28;20421;-74
2024/01/12 09:40:47;;;;;;;29.43;12.90;;;2.20;99.90;;;;;;5033509;28;20218;-73
2024/01/12 09:43:14;;;;;;;30.13;14.60;;;2.20;99.90;;;;;;5032565;28;20865;-73
2024/01/12 09:45:45;;;;;;;23.93;13.03;;;2.20;99.90;;;;;;5014357;28;20425;-73
2024/01/12 09:48:11;;;;;;;32.87;15.90;;;2.20;99.90;;;;;;5032630;28;20456;-72
2024/01/12 09:50:39;;;;;;;28.27;14.57;;;2.20;99.90;;;;;;5032417;28;21221;-73
2024/01/12 09:53:05;;;;;;;29.33;14.70;;;2.20;99.90;;;;;;5033187;28;20428;-71
2024/01/12 09:55:31;;;;;;;32.83;15.67;;;2.20;99.90;;;;;;5031296;28;21295;-74
2024/01/12 09:57:57;;;;;;;28.53;15.07;;;2.20;99.90;;;;;;5033629;28;20417;-74
2024/01/12 10:00:26;;;;;;;32.00;14.60;;;2.20;99.90;;;;;;5032478;28;20217;-72
2024/01/12 10:02:52;;;;;;;36.47;16.90;;;2.20;99.90;;;;;;5032395;28;20425;-73
2024/01/12 10:05:18;;;;;;;37.60;18.90;;;2.20;99.90;;;;;;5032472;28;20783;-71
2024/01/12 10:07:44;;;;;;;36.47;19.07;;;2.20;99.90;;;;;;5033954;28;20425;-74
2024/01/12 10:10:10;;;;;;;34.73;18.50;;;2.20;99.90;;;;;;5032412;28;20205;-74
2024/01/12 10:12:36;;;;;;;32.40;18.57;;;2.10;99.90;;;;;;5032686;28;20512;-74
2024/01/12 10:15:12;;;;;;;33.80;16.80;;;2.10;99.90;;;;;;5014717;28;20181;-70
2024/01/12 10:17:38;;;;;;;36.50;18.10;;;2.20;99.90;;;;;;5032215;28;20377;-71
2024/01/12 10:20:06;;;;;;;31.50;17.43;;;2.20;99.90;;;;;;5033360;28;20570;-73
2024/01/12 10:22:32;;;;;;;30.30;18.40;;;2.20;99.90;;;;;;5031729;28;20189;-72
2024/01/12 10:24:59;;;;;;;38.00;20.10;;;2.20;99.90;;;;;;5033150;28;20436;-71
2024/01/12 10:27:26;;;;;;;38.23;19.40;;;2.30;99.90;;;;;;5032699;28;20181;-73
2024/01/12 10:29:52;;;;;;;37.87;19.97;;;2.20;99.90;;;;;;5032401;28;21080;-75
2024/01/12 10:32:20;;;;;;;34.70;19.90;;;2.30;99.90;;;;;;5032229;28;20421;-72
2024/01/12 10:34:50;;;;;;;42.00;21.10;;;2.30;99.90;;;;;;5032621;28;20178;-71
2024/01/12 10:37:18;;;;;;;37.07;19.67;;;2.20;99.90;;;;;;5031311;28;20468;-73
2024/01/12 10:39:49;;;;;;;34.27;18.50;;;2.20;99.90;;;;;;5034179;28;20507;-72
2024/01/12 10:42:16;;;;;;;33.27;19.00;;;2.20;99.90;;;;;;5036590;28;20432;-72
2024/01/12 10:44:45;;;;;;;37.93;19.23;;;2.20;99.90;;;;;;5036552;28;20926;-75
2024/01/12 10:47:16;;;;;;;37.03;18.10;;;2.20;99.90;;;;;;5035808;28;20463;-70
2024/01/12 10:49:49;;;;;;;34.10;19.60;;;2.20;99.90;;;;;;5036438;28;20436;-71
2024/01/12 10:52:37;;;;;;;38.67;18.20;;;2.20;99.90;;;;;;5035652;28;20432;-73
2024/01/12 10:55:05;;;;;;;43.07;19.10;;;2.20;99.90;;;;;;5035938;28;20435;-74
2024/01/12 10:57:32;;;;;;;34.40;18.20;;;2.20;99.90;;;;;;5034494;28;20436;-74
2024/01/12 10:59:59;;;;;;;41.30;22.10;;;2.20;99.90;;;;;;5036434;28;20571;-72
2024/01/12 11:02:26;;;;;;;43.60;21.43;;;2.20;99.90;;;;;;5035706;28;20432;-71
2024/01/12 11:04:53;;;;;;;44.83;20.90;;;2.20;99.90;;;;;;5035773;28;20432;-74
2024/01/12 11:07:19;;;;;;;38.60;19.63;;;2.30;99.90;;;;;;5035778;28;20436;-74
2024/01/12 11:09:44;;;;;;;37.70;21.97;;;2.30;99.90;;;;;;5018759;28;20435;-74
2024/01/12 11:12:28;;;;;;;39.70;21.00;;;2.30;99.90;;;;;;5035386;28;20429;-72
2024/01/12 11:14:54;;;;;;;39.17;21.50;;;2.20;99.90;;;;;;5036446;28;20173;-71
2024/01/12 11:17:20;;;;;;;45.70;21.37;;;2.30;99.90;;;;;;5034468;28;20848;-74
2024/01/12 11:19:46;;;;;;;45.30;23.77;;;2.20;99.90;;;;;;5036643;28;20218;-75
2024/01/12 11:22:12;;;;;;;37.30;21.30;;;2.20;99.90;;;;;;5034487;28;20256;-75
2024/01/12 11:24:44;;;;;;;35.57;20.10;;;2.30;99.90;;;;;;5036165;28;20460;-73
2024/01/12 11:27:13;;;;;;;40.57;23.00;;;2.30;99.90;;;;;;5035274;28;20178;-73
2024/01/12 11:29:40;;;;;;;41.57;22.30;;;2.30;99.90;;;;;;5035684;28;20430;-74
2024/01/12 11:32:06;;;;;;;47.33;22.50;;;2.30;99.90;;;;;;5035825;28;20779;-74
2024/01/12 11:34:38;;;;;;;39.67;21.70;;;2.30;99.90;;;;;;5034454;28;20436;-74
2024/01/12 11:37:08;;;;;;;46.50;23.67;;;2.30;99.90;;;;;;5035199;28;20459;-74
2024/01/12 11:39:40;;;;;;;37.63;21.57;;;2.30;99.90;;;;;;5035344;28;20472;-72
2024/01/12 11:42:06;;;;;;;49.40;26.20;;;2.20;99.90;;;;;;5035661;28;20966;-73
2024/01/12 11:44:35;;;;;;;39.97;24.10;;;2.30;99.90;;;;;;5034235;28;20519;-71
2024/01/12 11:47:01;;;;;;;47.13;25.40;;;2.20;99.90;;;;;;5035473;28;20201;-73
2024/01/12 11:49:29;;;;;;;46.07;24.50;;;2.30;99.90;;;;;;5034440;28;20429;-72
2024/01/12 11:52:05;;;;;;;47.57;24.10;;;2.20;99.90;;;;;;5034860;28;20969;-73
2024/01/12 11:54:31;;;;;;;38.50;22.93;;;2.30;99.90;;;;;;5016997;28;20957;-72
2024/01/12 11:56:56;;;;;;;42.60;24.07;;;2.30;99.90;;;;;;5035812;28;20432;-72
2024/01/12 11:59:22;;;;;;;45.03;22.10;;;2.30;99.90;;;;;;5033174;28;20177;-71
2024/01/12 12:01:48;;;;;;;45.63;21.03;;;2.30;99.90;;;;;;5035891;28;20436;-71
2024/01/12 12:04:17;;;;;;;44.23;22.90;;;2.30;99.90;;;;;;5034556;28;20930;-74
2024/01/12 12:06:46;;;;;;;42.80;21.37;;;2.30;99.90;;;;;;5017117;28;20182;-72
2024/01/12 12:09:12;;;;;;;43.23;21.17;;;2.30;99.90;;;;;;5033530;28;20428;-74
2024/01/12 12:11:38;;;;;;;39.93;20.87;;;2.30;99.90;;;;;;5035113;28;20928;-73
2024/01/12 12:14:04;;;;;;;51.33;22.90;;;2.30;99.90;;;;;;5035126;28;20178;-71
2024/01/12 12:16:30;;;;;;;45.17;21.13;;;2.30;99.90;;;;;;5034307;28;20459;-73
2024/01/12 12:18:55;;;;;;;41.47;21.27;;;2.40;99.90;;;;;;5035762;28;20212;-72
2024/01/12 12:21:22;;;;;;;43.47;21.57;;;2.30;99.90;;;;;;5015934;28;20261;-71
2024/01/12 12:23:48;;;;;;;38.43;20.23;;;2.30;99.90;;;;;;5034211;28;20218;-71
2024/01/12 12:26:14;;;;;;;39.20;19.70;;;2.30;99.90;;;;;;5033651;28;20420;-74
2024/01/12 12:28:39;;;;;;;32.90;18.13;;;2.30;99.90;;;;;;5034985;28;20432;-74
2024/01/12 12:31:10;;;;;;;34.00;17.43;;;2.30;99.90;;;;;;5016526;28;20428;-72
2024/01/12 12:33:36;;;;;;;34.67;17.70;;;2.30;99.90;;;;;;5035432;28;20633;-72